createdAt,value
2019-03-22T00:00:13.426Z,48.61
2019-03-22T00:01:13.372Z,47.97
2019-03-22T00:02:13.366Z,51.54
2019-03-22T00:03:13.352Z,49.14
2019-03-22T00:04:13.520Z,49.76
2019-03-22T00:05:13.329Z,49.97
2019-03-22T00:06:13.376Z,49.55
2019-03-22T00:07:13.319Z,48.10
2019-03-22T00:08:13.298Z,47.78
2019-03-22T00:09:13.293Z,50.68
2019-03-22T00:10:13.288Z,49.14
2019-03-22T00:11:13.290Z,49.55
2019-03-22T00:12:13.302Z,49.55
2019-03-22T00:13:13.260Z,49.45
2019-03-22T00:14:13.244Z,49.24
2019-03-22T00:15:13.231Z,49.97
2019-03-22T00:16:13.219Z,47.03
2019-03-22T00:17:13.217Z,46.20
2019-03-22T00:18:13.248Z,47.24
2019-03-22T00:19:13.228Z,43.48
2019-03-22T00:20:13.178Z,46.82
2019-03-22T00:21:13.179Z,50.08
2019-03-22T00:22:13.145Z,51.01
2019-03-22T00:23:19.760Z,49.66
2019-03-22T00:24:13.156Z,48.30
2019-03-22T00:25:13.151Z,48.41
2019-03-22T00:26:13.112Z,48.72
2019-03-22T00:27:16.646Z,47.99
2019-03-22T00:28:14.259Z,46.53
2019-03-22T00:29:13.068Z,48.07
2019-03-22T00:30:13.059Z,48.10
2019-03-22T00:31:13.094Z,47.67
2019-03-22T00:32:13.072Z,47.39
2019-03-22T00:33:13.029Z,47.80
2019-03-22T00:34:13.014Z,48.22
2019-03-22T00:35:13.003Z,48.10
2019-03-22T00:36:12.997Z,46.22
2019-03-22T00:37:13.051Z,44.23
2019-03-22T00:38:12.983Z,46.01
2019-03-22T00:39:12.984Z,44.53
2019-03-22T00:40:12.948Z,44.55
2019-03-22T00:41:12.938Z,46.92
2019-03-22T00:42:12.936Z,49.14
2019-03-22T00:43:12.960Z,49.66
2019-03-22T00:44:12.919Z,47.99
2019-03-22T00:45:12.901Z,48.43
2019-03-22T00:46:12.889Z,47.60
2019-03-22T00:47:12.959Z,47.89
2019-03-22T00:48:12.865Z,47.89
2019-03-22T00:49:12.897Z,48.10
2019-03-22T00:50:12.862Z,46.74
2019-03-22T00:51:12.838Z,48.10
2019-03-22T00:52:12.821Z,46.84
2019-03-22T00:53:12.809Z,47.89
2019-03-22T00:54:12.801Z,47.49
2019-03-22T00:55:12.831Z,46.45
2019-03-22T00:56:12.797Z,45.48
2019-03-22T00:57:12.775Z,44.86
2019-03-22T00:58:12.761Z,43.82
2019-03-22T00:59:12.761Z,45.90
2019-03-22T01:00:12.736Z,46.42
2019-03-22T01:01:12.764Z,46.13
2019-03-22T01:02:12.736Z,45.92
2019-03-22T01:03:12.713Z,44.88
2019-03-22T01:04:12.694Z,45.72
2019-03-22T01:05:12.693Z,44.55
2019-03-22T01:06:12.709Z,48.22
2019-03-22T01:07:12.669Z,48.64
2019-03-22T01:08:12.661Z,48.43
2019-03-22T01:09:12.649Z,46.03
2019-03-22T01:10:12.639Z,47.39
2019-03-22T01:11:12.624Z,46.45
2019-03-22T01:12:12.647Z,46.03
2019-03-22T01:13:12.604Z,46.34
2019-03-22T01:14:12.608Z,48.11
2019-03-22T01:15:12.621Z,48.14
2019-03-22T01:16:12.573Z,47.39
2019-03-22T01:17:12.562Z,47.91
2019-03-22T01:18:12.555Z,47.70
2019-03-22T01:19:12.541Z,47.17
2019-03-22T01:20:12.609Z,46.23
2019-03-22T01:21:12.628Z,47.39
2019-03-22T01:22:12.507Z,48.14
2019-03-22T01:23:12.498Z,48.33
2019-03-22T01:24:12.488Z,46.86
2019-03-22T01:25:12.473Z,45.48
2019-03-22T01:26:12.479Z,45.70
2019-03-22T01:27:12.498Z,45.70
2019-03-22T01:28:12.444Z,47.99
2019-03-22T01:29:12.431Z,47.26
2019-03-22T01:30:12.424Z,47.16
2019-03-22T01:31:13.213Z,46.86
2019-03-22T01:32:12.411Z,46.45
2019-03-22T01:33:12.431Z,47.07
2019-03-22T01:34:12.377Z,46.74
2019-03-22T01:35:12.368Z,48.22
2019-03-22T01:36:12.358Z,46.42
2019-03-22T01:37:12.346Z,46.53
2019-03-22T01:38:12.345Z,47.36
2019-03-22T01:39:12.386Z,48.22
2019-03-22T01:40:12.317Z,47.80
2019-03-22T01:41:12.511Z,47.91
2019-03-22T01:42:12.293Z,48.01
2019-03-22T01:43:12.283Z,47.60
2019-03-22T01:44:12.286Z,46.97
2019-03-22T01:45:12.307Z,47.57
2019-03-22T01:46:12.334Z,48.41
2019-03-22T01:47:12.243Z,46.22
2019-03-22T01:48:12.238Z,43.07
2019-03-22T01:49:12.216Z,45.98
2019-03-22T01:50:12.221Z,46.11
2019-03-22T01:51:12.240Z,47.26
2019-03-22T01:52:12.188Z,46.84
2019-03-22T01:53:12.176Z,46.66
2019-03-22T01:54:12.171Z,47.39
2019-03-22T01:55:12.157Z,48.01
2019-03-22T01:56:12.157Z,47.57
2019-03-22T01:57:12.173Z,48.20
2019-03-22T01:58:12.124Z,48.41
2019-03-22T01:59:12.116Z,46.63
2019-03-22T02:00:12.106Z,46.01
2019-03-22T02:01:12.091Z,46.22
2019-03-22T02:02:12.094Z,46.63
2019-03-22T02:03:12.114Z,49.14
2019-03-22T02:04:12.061Z,48.41
2019-03-22T02:05:12.051Z,47.47
2019-03-22T02:06:12.043Z,48.30
2019-03-22T02:07:12.028Z,48.54
2019-03-22T02:08:12.028Z,47.05
2019-03-22T02:09:12.045Z,46.66
2019-03-22T02:10:12.094Z,47.47
2019-03-22T02:11:11.986Z,44.34
2019-03-22T02:12:11.979Z,44.34
2019-03-22T02:13:11.965Z,44.86
2019-03-22T02:14:11.959Z,46.84
2019-03-22T02:15:11.981Z,48.30
2019-03-22T02:16:11.932Z,49.26
2019-03-22T02:17:11.923Z,46.84
2019-03-22T02:18:11.918Z,39.11
2019-03-22T02:19:12.963Z,39.73
2019-03-22T02:20:11.897Z,41.50
2019-03-22T02:21:11.960Z,45.36
2019-03-22T02:22:11.869Z,44.76
2019-03-22T02:23:11.862Z,44.76
2019-03-22T02:24:11.857Z,43.82
2019-03-22T02:25:11.838Z,46.55
2019-03-22T02:26:11.835Z,43.92
2019-03-22T02:27:11.857Z,42.86
2019-03-22T02:28:11.807Z,44.84
2019-03-22T02:29:12.011Z,44.86
2019-03-22T02:30:11.786Z,44.76
2019-03-22T02:31:11.785Z,44.34
2019-03-22T02:32:11.778Z,44.65
2019-03-22T02:33:11.795Z,44.44
2019-03-22T02:34:11.743Z,44.65
2019-03-22T02:35:26.906Z,48.30
2019-03-22T02:36:12.718Z,48.41
2019-03-22T02:37:11.723Z,48.11
2019-03-22T02:38:11.706Z,48.22
2019-03-22T02:39:11.809Z,46.57
2019-03-22T02:40:11.687Z,45.01
2019-03-22T02:41:11.670Z,42.88
2019-03-22T02:42:11.657Z,47.78
2019-03-22T02:43:11.648Z,46.34
2019-03-22T02:44:11.644Z,48.11
2019-03-22T02:45:11.677Z,45.95
2019-03-22T02:46:11.613Z,42.27
2019-03-22T02:47:11.608Z,42.04
2019-03-22T02:48:11.612Z,43.92
2019-03-22T02:49:11.586Z,42.88
2019-03-22T02:50:18.734Z,44.86
2019-03-22T02:51:12.560Z,46.86
2019-03-22T02:52:11.551Z,46.23
2019-03-22T02:53:11.548Z,45.30
2019-03-22T02:54:11.541Z,45.72
2019-03-22T02:55:11.561Z,46.45
2019-03-22T02:56:11.640Z,44.88
2019-03-22T02:57:11.502Z,46.03
2019-03-22T02:58:20.593Z,44.98
2019-03-22T02:59:12.479Z,45.70
2019-03-22T03:00:11.487Z,45.72
2019-03-22T03:01:11.494Z,44.65
2019-03-22T03:02:11.459Z,46.03
2019-03-22T03:03:11.432Z,46.32
2019-03-22T03:04:11.422Z,45.82
2019-03-22T03:05:11.418Z,44.57
2019-03-22T03:06:11.403Z,44.02
2019-03-22T03:07:11.442Z,43.42
2019-03-22T03:08:11.390Z,41.52
2019-03-22T03:09:11.411Z,41.73
2019-03-22T03:10:11.367Z,41.31
2019-03-22T03:11:11.360Z,43.40
2019-03-22T03:12:11.341Z,42.98
2019-03-22T03:13:11.336Z,43.61
2019-03-22T03:14:11.322Z,42.88
2019-03-22T03:15:11.343Z,43.71
2019-03-22T03:16:11.300Z,42.57
2019-03-22T03:17:11.333Z,44.13
2019-03-22T03:18:11.281Z,45.40
2019-03-22T03:19:11.269Z,45.09
2019-03-22T03:20:11.267Z,44.67
2019-03-22T03:21:11.281Z,44.88
2019-03-22T03:22:11.233Z,43.21
2019-03-22T03:23:11.224Z,42.79
2019-03-22T03:24:11.217Z,44.36
2019-03-22T03:25:11.204Z,43.84
2019-03-22T03:26:11.197Z,44.67
2019-03-22T03:27:11.232Z,45.72
2019-03-22T03:28:11.175Z,45.72
2019-03-22T03:29:11.195Z,44.67
2019-03-22T03:30:11.149Z,46.36
2019-03-22T03:31:11.143Z,46.23
2019-03-22T03:32:11.152Z,45.73
2019-03-22T03:33:11.130Z,41.64
2019-03-22T03:34:11.110Z,43.63
2019-03-22T03:35:11.135Z,44.15
2019-03-22T03:36:11.083Z,42.14
2019-03-22T03:37:11.076Z,43.40
2019-03-22T03:38:11.066Z,43.40
2019-03-22T03:39:11.057Z,43.82
2019-03-22T03:40:11.053Z,44.76
2019-03-22T03:41:11.079Z,46.11
2019-03-22T03:42:11.018Z,45.48
2019-03-22T03:43:11.011Z,45.82
2019-03-22T03:44:11.005Z,46.03
2019-03-22T03:45:10.989Z,44.67
2019-03-22T03:46:10.980Z,43.52
2019-03-22T03:47:11.008Z,44.67
2019-03-22T03:48:10.981Z,44.36
2019-03-22T03:49:10.964Z,44.65
2019-03-22T03:50:10.951Z,44.88
2019-03-22T03:51:10.936Z,42.88
2019-03-22T03:52:10.961Z,44.65
2019-03-22T03:53:10.987Z,44.96
2019-03-22T03:54:10.910Z,44.67
2019-03-22T03:55:10.907Z,45.72
2019-03-22T03:56:10.964Z,44.36
2019-03-22T03:57:10.868Z,43.63
2019-03-22T03:58:10.935Z,46.23
2019-03-22T03:59:10.843Z,46.03
2019-03-22T04:00:10.855Z,45.38
2019-03-22T04:01:10.830Z,46.22
2019-03-22T04:02:10.863Z,45.92
2019-03-22T04:03:10.823Z,46.23
2019-03-22T04:04:10.801Z,46.76
2019-03-22T04:05:14.234Z,46.66
2019-03-22T04:06:10.767Z,44.67
2019-03-22T04:07:10.765Z,42.57
2019-03-22T04:08:10.819Z,44.78
2019-03-22T04:09:10.751Z,44.78
2019-03-22T04:10:10.742Z,45.09
2019-03-22T04:11:10.721Z,40.48
2019-03-22T04:12:10.709Z,38.79
2019-03-22T04:13:10.700Z,39.62
2019-03-22T04:14:10.743Z,43.17
2019-03-22T04:15:10.672Z,42.98
2019-03-22T04:16:10.688Z,44.23
2019-03-22T04:17:10.672Z,43.71
2019-03-22T04:18:10.641Z,44.13
2019-03-22T04:19:10.629Z,45.59
2019-03-22T04:20:10.657Z,45.72
2019-03-22T04:21:10.611Z,46.97
2019-03-22T04:22:10.627Z,47.28
2019-03-22T04:23:10.589Z,47.49
2019-03-22T04:24:10.582Z,46.86
2019-03-22T04:25:10.580Z,43.92
2019-03-22T04:26:10.594Z,42.88
2019-03-22T04:27:10.573Z,45.90
2019-03-22T04:28:10.554Z,46.22
2019-03-22T04:29:10.533Z,47.60
2019-03-22T04:30:10.515Z,46.47
2019-03-22T04:31:10.505Z,46.26
2019-03-22T04:32:10.545Z,46.23
2019-03-22T04:33:10.500Z,46.23
2019-03-22T04:34:10.482Z,44.79
2019-03-22T04:35:10.464Z,44.26
2019-03-22T04:36:10.483Z,43.94
2019-03-22T04:37:10.450Z,43.00
2019-03-22T04:38:10.479Z,42.46
2019-03-22T04:39:10.422Z,44.86
2019-03-22T04:40:10.436Z,44.96
2019-03-22T04:41:10.400Z,42.88
2019-03-22T04:42:10.395Z,44.65
2019-03-22T04:43:10.383Z,44.76
2019-03-22T04:44:10.416Z,45.82
2019-03-22T04:45:10.375Z,46.13
2019-03-22T04:46:10.363Z,47.70
2019-03-22T04:47:10.333Z,48.54
2019-03-22T04:48:10.324Z,47.72
2019-03-22T04:49:10.316Z,46.66
2019-03-22T04:50:10.340Z,43.40
2019-03-22T04:51:10.612Z,43.51
2019-03-22T04:52:10.303Z,43.71
2019-03-22T04:53:10.322Z,43.51
2019-03-22T04:54:10.266Z,44.86
2019-03-22T04:55:10.273Z,43.61
2019-03-22T04:56:10.243Z,42.46
2019-03-22T04:57:10.242Z,43.29
2019-03-22T04:58:10.225Z,40.27
2019-03-22T04:59:19.112Z,41.61
2019-03-22T05:00:11.206Z,41.19
2019-03-22T05:01:10.189Z,39.64
2019-03-22T05:02:10.178Z,41.30
2019-03-22T05:03:10.226Z,42.33
2019-03-22T05:04:10.157Z,41.30
2019-03-22T05:05:10.182Z,43.48
2019-03-22T05:06:10.134Z,42.23
2019-03-22T05:07:10.773Z,41.83
2019-03-22T05:08:10.117Z,43.07
2019-03-22T05:09:10.101Z,44.02
2019-03-22T05:10:10.111Z,43.29
2019-03-22T05:11:10.154Z,42.44
2019-03-22T05:12:10.071Z,44.84
2019-03-22T05:13:10.074Z,44.65
2019-03-22T05:14:10.067Z,46.53
2019-03-22T05:15:10.101Z,45.48
2019-03-22T05:16:10.030Z,44.76
2019-03-22T05:17:10.027Z,42.67
2019-03-22T05:18:10.015Z,42.77
2019-03-22T05:19:10.015Z,43.40
2019-03-22T05:20:10.011Z,43.40
2019-03-22T05:21:10.039Z,41.61
2019-03-22T05:22:09.969Z,41.19
2019-03-22T05:23:09.953Z,44.11
2019-03-22T05:24:09.956Z,45.07
2019-03-22T05:25:09.953Z,44.76
2019-03-22T05:26:09.970Z,43.71
2019-03-22T05:27:09.911Z,44.65
2019-03-22T05:28:09.914Z,45.28
2019-03-22T05:29:09.890Z,44.32
2019-03-22T05:30:09.892Z,46.32
2019-03-22T05:31:09.868Z,46.32
2019-03-22T05:32:09.899Z,46.92
2019-03-22T05:33:09.926Z,46.09
2019-03-22T05:34:09.853Z,46.53
2019-03-22T05:35:09.831Z,45.70
2019-03-22T05:36:09.828Z,45.70
2019-03-22T05:37:09.810Z,44.55
2019-03-22T05:38:09.837Z,46.11
2019-03-22T05:39:09.804Z,44.76
2019-03-22T05:40:09.796Z,43.80
2019-03-22T05:41:09.763Z,38.98
2019-03-22T05:42:09.761Z,36.88
2019-03-22T05:43:09.756Z,38.44
2019-03-22T05:44:09.770Z,40.94
2019-03-22T05:45:09.734Z,44.82
2019-03-22T05:46:09.707Z,42.11
2019-03-22T05:47:09.731Z,37.09
2019-03-22T05:48:09.698Z,36.03
2019-03-22T05:49:09.683Z,37.28
2019-03-22T05:50:09.711Z,34.35
2019-03-22T05:51:09.655Z,35.70
2019-03-22T05:52:09.652Z,36.03
2019-03-22T05:53:09.668Z,38.21
2019-03-22T05:54:09.623Z,42.71
2019-03-22T05:55:09.620Z,43.86
2019-03-22T05:56:09.649Z,42.32
2019-03-22T05:57:13.669Z,43.88
2019-03-22T05:58:09.588Z,41.69
2019-03-22T05:59:09.585Z,42.52
2019-03-22T06:00:09.561Z,44.84
2019-03-22T06:01:09.718Z,42.86
2019-03-22T06:02:09.574Z,40.46
2019-03-22T06:03:09.527Z,42.42
2019-03-22T06:04:09.520Z,36.58
2019-03-22T06:05:09.521Z,34.16
2019-03-22T06:06:09.531Z,35.94
2019-03-22T06:07:10.566Z,36.03
2019-03-22T06:08:09.681Z,39.79
2019-03-22T06:09:09.735Z,41.36
2019-03-22T06:10:09.489Z,41.17
2019-03-22T06:11:09.551Z,41.06
2019-03-22T06:12:09.567Z,43.36
2019-03-22T06:13:09.610Z,41.49
2019-03-22T06:14:09.621Z,39.61
2019-03-22T06:15:09.428Z,38.25
2019-03-22T06:16:09.533Z,38.02
2019-03-22T06:17:09.454Z,37.71
2019-03-22T06:18:10.188Z,37.71
2019-03-22T06:19:09.595Z,37.51
2019-03-22T06:20:09.789Z,37.82
2019-03-22T06:21:09.520Z,39.48
2019-03-22T06:22:09.717Z,38.44
2019-03-22T06:23:09.353Z,37.90
2019-03-22T06:24:09.328Z,36.34
2019-03-22T06:25:09.311Z,33.33
2019-03-22T06:26:09.397Z,34.14
2019-03-22T06:27:12.131Z,35.70
2019-03-22T06:28:10.242Z,33.41
2019-03-22T06:29:09.468Z,31.02
2019-03-22T06:30:09.241Z,29.77
2019-03-22T06:31:09.565Z,31.42
2019-03-22T06:32:10.120Z,31.32
2019-03-22T06:33:09.564Z,29.22
2019-03-22T06:34:09.314Z,28.59
2019-03-22T06:35:10.172Z,27.44
2019-03-22T06:36:09.253Z,27.74
2019-03-22T06:37:10.146Z,27.70
2019-03-22T06:38:09.335Z,27.14
2019-03-22T06:39:09.153Z,29.72
2019-03-22T06:40:09.176Z,31.13
2019-03-22T06:41:09.130Z,28.71
2019-03-22T06:42:09.111Z,27.15
2019-03-22T06:43:09.109Z,27.14
2019-03-22T06:44:09.091Z,26.92
2019-03-22T06:45:09.084Z,24.84
2019-03-22T06:46:09.109Z,24.41
2019-03-22T06:47:11.051Z,23.66
2019-03-22T06:48:09.065Z,24.26
2019-03-22T06:49:09.037Z,23.63
2019-03-22T06:50:09.046Z,24.44
2019-03-22T06:51:09.042Z,25.37
2019-03-22T06:52:09.049Z,23.50
2019-03-22T06:53:09.003Z,24.41
2019-03-22T06:54:09.601Z,22.15
2019-03-22T06:55:08.979Z,25.14
2019-03-22T06:56:08.973Z,28.87
2019-03-22T06:57:08.952Z,27.23
2019-03-22T06:58:08.975Z,26.69
2019-03-22T06:59:08.948Z,28.96
2019-03-22T07:00:08.921Z,30.19
2019-03-22T07:01:08.941Z,29.14
2019-03-22T07:02:08.922Z,28.20
2019-03-22T07:03:08.927Z,25.23
2019-03-22T07:04:08.913Z,26.48
2019-03-22T07:05:08.879Z,27.51
2019-03-22T07:06:08.871Z,26.89
2019-03-22T07:07:08.866Z,26.47
2019-03-22T07:08:08.829Z,27.39
2019-03-22T07:09:08.827Z,23.10
2019-03-22T07:10:08.845Z,22.57
2019-03-22T07:11:08.853Z,23.28
2019-03-22T07:12:08.843Z,27.33
2019-03-22T07:13:08.822Z,26.40
2019-03-22T07:14:08.767Z,23.32
2019-03-22T07:15:08.759Z,23.10
2019-03-22T07:16:08.745Z,22.99
2019-03-22T07:17:08.828Z,22.90
2019-03-22T07:18:08.730Z,21.56
2019-03-22T07:19:08.734Z,22.05
2019-03-22T07:20:08.701Z,21.12
2019-03-22T07:21:08.696Z,22.24
2019-03-22T07:22:08.688Z,21.00
2019-03-22T07:23:08.714Z,22.42
2019-03-22T07:24:08.681Z,21.41
2019-03-22T07:25:08.693Z,20.72
2019-03-22T07:26:08.648Z,21.44
2019-03-22T07:27:08.642Z,20.93
2019-03-22T07:28:08.622Z,22.78
2019-03-22T07:29:08.647Z,24.41
2019-03-22T07:30:18.178Z,22.56
2019-03-22T07:31:09.591Z,24.09
2019-03-22T07:32:08.597Z,20.51
2019-03-22T07:33:08.575Z,21.33
2019-03-22T07:34:08.551Z,20.62
2019-03-22T07:35:08.592Z,21.64
2019-03-22T07:36:08.547Z,22.69
2019-03-22T07:37:08.555Z,22.58
2019-03-22T07:38:08.509Z,22.28
2019-03-22T07:39:08.492Z,21.34
2019-03-22T07:40:08.513Z,22.77
2019-03-22T07:41:08.530Z,22.05
2019-03-22T07:42:08.531Z,22.46
2019-03-22T07:43:08.474Z,22.45
2019-03-22T07:44:08.528Z,21.01
2019-03-22T07:45:09.130Z,21.02
2019-03-22T07:46:08.465Z,22.85
2019-03-22T07:47:08.414Z,20.39
2019-03-22T07:48:08.416Z,22.12
2019-03-22T07:49:08.438Z,21.00
2019-03-22T07:50:08.377Z,21.01
2019-03-22T07:51:08.381Z,22.66
2019-03-22T07:52:08.405Z,22.64
2019-03-22T07:53:08.363Z,22.42
2019-03-22T07:54:08.336Z,22.72
2019-03-22T07:55:08.361Z,23.22
2019-03-22T07:56:08.374Z,20.97
2019-03-22T07:57:08.322Z,20.47
2019-03-22T07:58:08.332Z,19.74
2019-03-22T07:59:09.894Z,22.39
2019-03-22T08:00:08.276Z,22.60
2019-03-22T08:01:08.282Z,22.71
2019-03-22T08:02:08.260Z,21.08
2019-03-22T08:03:08.240Z,21.39
2019-03-22T08:04:08.303Z,20.86
2019-03-22T08:05:08.221Z,20.33
2019-03-22T08:06:08.255Z,19.30
2019-03-22T08:07:08.228Z,20.94
2019-03-22T08:08:08.186Z,21.86
2019-03-22T08:09:08.187Z,22.78
2019-03-22T08:10:08.202Z,21.45
2019-03-22T08:11:08.164Z,21.56
2019-03-22T08:12:08.200Z,21.95
2019-03-22T08:13:08.148Z,18.99
2019-03-22T08:14:08.124Z,19.48
2019-03-22T08:15:08.654Z,20.59
2019-03-22T08:16:08.158Z,22.12
2019-03-22T08:17:08.121Z,18.26
2019-03-22T08:18:08.102Z,20.49
2019-03-22T08:19:08.064Z,24.37
2019-03-22T08:20:08.081Z,22.36
2019-03-22T08:21:08.092Z,19.17
2019-03-22T08:22:08.059Z,21.72
2019-03-22T08:23:08.028Z,22.44
2019-03-22T08:24:08.057Z,21.51
2019-03-22T08:25:08.014Z,19.17
2019-03-22T08:26:08.088Z,22.41
2019-03-22T08:27:08.018Z,21.01
2019-03-22T08:28:08.615Z,24.48
2019-03-22T08:29:08.021Z,20.40
2019-03-22T08:30:07.989Z,22.13
2019-03-22T08:31:07.936Z,23.47
2019-03-22T08:32:07.949Z,21.92
2019-03-22T08:33:07.945Z,24.26
2019-03-22T08:34:07.900Z,23.33
2019-03-22T08:35:07.911Z,21.10
2019-03-22T08:36:07.890Z,23.03
2019-03-22T08:37:07.874Z,22.85
2019-03-22T08:38:07.864Z,22.63
2019-03-22T08:39:07.891Z,24.68
2019-03-22T08:40:07.846Z,22.23
2019-03-22T08:41:07.836Z,22.94
2019-03-22T08:42:07.825Z,23.05
2019-03-22T08:43:07.841Z,25.48
2019-03-22T08:44:07.793Z,25.09
2019-03-22T08:45:07.818Z,23.26
2019-03-22T08:46:07.777Z,26.02
2019-03-22T08:47:07.780Z,24.59
2019-03-22T08:48:07.745Z,24.29
2019-03-22T08:49:09.560Z,24.69
2019-03-22T08:50:07.729Z,23.88
2019-03-22T08:51:07.782Z,26.71
2019-03-22T08:52:07.754Z,25.05
2019-03-22T08:53:07.691Z,25.15
2019-03-22T08:54:07.722Z,22.73
2019-03-22T08:55:07.669Z,24.25
2019-03-22T08:56:07.668Z,22.12
2019-03-22T08:57:07.658Z,24.63
2019-03-22T08:58:07.653Z,23.32
2019-03-22T08:59:07.674Z,22.62
2019-03-22T09:00:07.653Z,22.62
2019-03-22T09:01:07.605Z,23.13
2019-03-22T09:02:08.416Z,24.44
2019-03-22T09:03:07.606Z,22.70
2019-03-22T09:04:07.590Z,21.80
2019-03-22T09:05:07.587Z,20.47
2019-03-22T09:06:07.978Z,22.00
2019-03-22T09:07:07.591Z,22.50
2019-03-22T09:08:07.544Z,22.30
2019-03-22T09:09:07.520Z,22.71
2019-03-22T09:10:07.530Z,22.81
2019-03-22T09:11:07.512Z,22.91
2019-03-22T09:12:07.543Z,24.53
2019-03-22T09:13:07.480Z,23.21
2019-03-22T09:14:07.466Z,23.31
2019-03-22T09:15:07.465Z,21.89
2019-03-22T09:16:07.459Z,23.00
2019-03-22T09:17:07.448Z,22.20
2019-03-22T09:18:07.471Z,22.39
2019-03-22T09:19:07.458Z,21.89
2019-03-22T09:20:07.486Z,19.24
2019-03-22T09:21:07.396Z,24.41
2019-03-22T09:22:07.409Z,24.82
2019-03-22T09:23:07.387Z,24.62
2019-03-22T09:24:07.409Z,22.59
2019-03-22T09:25:07.348Z,24.62
2019-03-22T09:26:07.377Z,22.50
2019-03-22T09:27:07.327Z,21.98
2019-03-22T09:28:10.192Z,23.11
2019-03-22T09:29:07.329Z,22.29
2019-03-22T09:30:07.330Z,26.66
2019-03-22T09:31:10.951Z,24.73
2019-03-22T09:32:07.309Z,22.19
2019-03-22T09:33:07.272Z,23.81
2019-03-22T09:34:07.282Z,23.19
2019-03-22T09:35:07.242Z,22.49
2019-03-22T09:36:07.258Z,21.86
2019-03-22T09:37:08.919Z,22.99
2019-03-22T09:38:12.768Z,21.67
2019-03-22T09:39:08.241Z,22.08
2019-03-22T09:40:08.608Z,24.41
2019-03-22T09:41:07.208Z,24.41
2019-03-22T09:42:07.191Z,22.49
2019-03-22T09:43:07.185Z,23.81
2019-03-22T09:44:07.141Z,23.71
2019-03-22T09:45:07.160Z,24.02
2019-03-22T09:46:07.114Z,22.29
2019-03-22T09:47:07.153Z,24.51
2019-03-22T09:48:07.112Z,22.49
2019-03-22T09:49:07.089Z,24.21
2019-03-22T09:50:07.137Z,22.70
2019-03-22T09:51:07.111Z,21.77
2019-03-22T09:52:07.081Z,22.80
2019-03-22T09:53:07.155Z,22.79
2019-03-22T09:54:07.070Z,20.86
2019-03-22T09:55:13.395Z,20.15
2019-03-22T09:56:08.066Z,20.85
2019-03-22T09:57:07.067Z,21.95
2019-03-22T09:58:06.985Z,21.25
2019-03-22T09:59:07.021Z,20.94
2019-03-22T10:00:06.966Z,24.08
2019-03-22T10:01:06.998Z,21.23
2019-03-22T10:02:06.947Z,21.75
2019-03-22T10:03:06.943Z,19.33
2019-03-22T10:04:06.930Z,21.23
2019-03-22T10:05:06.977Z,21.86
2019-03-22T10:06:06.958Z,20.32
2019-03-22T10:07:06.897Z,22.25
2019-03-22T10:08:06.892Z,21.92
2019-03-22T10:09:06.898Z,20.71
2019-03-22T10:10:06.873Z,23.16
2019-03-22T10:11:06.892Z,21.84
2019-03-22T10:12:06.874Z,21.75
2019-03-22T10:13:06.830Z,24.40
2019-03-22T10:14:06.851Z,22.16
2019-03-22T10:15:06.883Z,24.28
2019-03-22T10:16:06.792Z,25.91
2019-03-22T10:17:06.873Z,22.24
2019-03-22T10:18:06.844Z,24.08
2019-03-22T10:19:06.783Z,24.18
2019-03-22T10:20:06.763Z,22.67
2019-03-22T10:21:06.793Z,21.95
2019-03-22T10:22:06.758Z,23.86
2019-03-22T10:23:06.727Z,23.05
2019-03-22T10:24:06.707Z,21.45
2019-03-22T10:25:06.718Z,21.13
2019-03-22T10:26:06.742Z,20.83
2019-03-22T10:27:06.732Z,22.66
2019-03-22T10:28:06.715Z,22.15
2019-03-22T10:29:07.287Z,22.55
2019-03-22T10:30:06.695Z,22.24
2019-03-22T10:31:06.682Z,22.63
2019-03-22T10:32:06.727Z,21.51
2019-03-22T10:33:06.644Z,18.78
2019-03-22T10:34:06.635Z,20.19
2019-03-22T10:35:06.595Z,18.96
2019-03-22T10:36:06.572Z,20.77
2019-03-22T10:37:06.705Z,18.96
2019-03-22T10:38:16.015Z,17.03
2019-03-22T10:39:07.590Z,18.95
2019-03-22T10:40:06.546Z,18.16
2019-03-22T10:41:06.521Z,18.16
2019-03-22T10:42:06.553Z,17.24
2019-03-22T10:43:06.495Z,20.68
2019-03-22T10:44:06.552Z,20.07
2019-03-22T10:45:06.529Z,18.04
2019-03-22T10:46:07.940Z,16.11
2019-03-22T10:47:06.452Z,15.72
2019-03-22T10:48:06.481Z,16.02
2019-03-22T10:49:06.452Z,19.36
2019-03-22T10:50:06.455Z,18.35
2019-03-22T10:51:06.472Z,15.31
2019-03-22T10:52:06.406Z,17.94
2019-03-22T10:53:06.384Z,17.54
2019-03-22T10:54:06.485Z,17.43
2019-03-22T10:55:17.742Z,19.15
2019-03-22T10:56:07.371Z,22.37
2019-03-22T10:57:06.382Z,18.02
2019-03-22T10:58:19.859Z,16.72
2019-03-22T10:59:07.325Z,16.52
2019-03-22T11:00:06.321Z,16.94
2019-03-22T11:01:08.298Z,18.04
2019-03-22T11:02:07.776Z,15.60
2019-03-22T11:03:06.336Z,15.10
2019-03-22T11:05:06.257Z,19.85
2019-03-22T11:06:06.248Z,19.35
2019-03-22T11:07:06.244Z,18.93
2019-03-22T11:08:06.250Z,18.12
2019-03-22T11:09:06.256Z,16.39
2019-03-22T11:10:06.223Z,15.79
2019-03-22T11:11:06.195Z,14.28
2019-03-22T11:12:12.171Z,18.12
2019-03-22T11:13:07.176Z,18.91
2019-03-22T11:14:06.160Z,18.01
2019-03-22T11:15:06.194Z,20.23
2019-03-22T11:16:06.141Z,18.10
2019-03-22T11:17:06.134Z,18.10
2019-03-22T11:18:06.119Z,15.88
2019-03-22T11:19:06.120Z,19.42
2019-03-22T11:20:06.105Z,15.06
2019-03-22T11:21:06.133Z,16.39
2019-03-22T11:22:06.078Z,18.32
2019-03-22T11:23:06.061Z,19.93
2019-03-22T11:24:06.068Z,16.59
2019-03-22T11:25:06.039Z,18.21
2019-03-22T11:26:06.072Z,16.00
2019-03-22T11:27:06.062Z,18.84
2019-03-22T11:28:06.014Z,18.92
2019-03-22T11:29:06.011Z,16.29
2019-03-22T11:30:05.990Z,16.09
2019-03-22T11:31:06.001Z,19.63
2019-03-22T11:32:12.593Z,16.80
2019-03-22T11:33:06.987Z,18.92
2019-03-22T11:34:05.946Z,16.49
2019-03-22T11:35:05.974Z,17.80
2019-03-22T11:36:05.964Z,18.21
2019-03-22T11:37:07.716Z,17.19
2019-03-22T11:38:05.921Z,17.41
2019-03-22T11:39:15.178Z,16.70
2019-03-22T11:40:06.921Z,18.02
2019-03-22T11:41:05.876Z,16.60
2019-03-22T11:42:05.861Z,18.92
2019-03-22T11:43:08.901Z,19.94
2019-03-22T11:44:05.843Z,17.20
2019-03-22T11:45:05.829Z,19.43
2019-03-22T11:46:05.874Z,19.12
2019-03-22T11:47:05.804Z,18.32
2019-03-22T11:48:05.797Z,18.92
2019-03-22T11:49:05.796Z,16.50
2019-03-22T11:50:05.826Z,20.42
2019-03-22T11:51:05.776Z,19.11
2019-03-22T11:52:05.783Z,19.00
2019-03-22T11:53:05.738Z,18.31
2019-03-22T11:54:05.759Z,18.93
2019-03-22T11:55:05.725Z,18.82
2019-03-22T11:56:05.712Z,18.41
2019-03-22T11:57:05.747Z,16.91
2019-03-22T11:58:05.694Z,17.41
2019-03-22T11:59:05.673Z,18.22
2019-03-22T12:00:05.662Z,18.32
2019-03-22T12:01:05.670Z,17.61
2019-03-22T12:02:05.642Z,18.41
2019-03-22T12:03:05.667Z,16.90
2019-03-22T12:04:05.627Z,17.82
2019-03-22T12:05:05.614Z,18.82
2019-03-22T12:06:05.603Z,18.11
2019-03-22T12:07:05.650Z,19.43
2019-03-22T12:08:05.578Z,19.42
2019-03-22T12:09:05.618Z,18.71
2019-03-22T12:10:05.571Z,15.99
2019-03-22T12:11:05.551Z,18.41
2019-03-22T12:12:05.541Z,18.41
2019-03-22T12:13:05.525Z,19.00
2019-03-22T12:14:05.510Z,20.10
2019-03-22T12:15:05.537Z,16.27
2019-03-22T12:16:05.510Z,16.58
2019-03-22T12:17:05.478Z,17.19
2019-03-22T12:18:05.481Z,16.99
2019-03-22T12:19:05.472Z,19.10
2019-03-22T12:20:05.443Z,19.90
2019-03-22T12:21:05.481Z,18.48
2019-03-22T12:22:05.437Z,16.56
2019-03-22T12:23:05.423Z,16.97
2019-03-22T12:24:05.452Z,18.27
2019-03-22T12:25:05.404Z,14.65
2019-03-22T12:26:06.482Z,17.38
2019-03-22T12:27:05.412Z,18.90
2019-03-22T12:28:05.363Z,15.26
2019-03-22T12:29:05.358Z,14.15
2019-03-22T12:30:05.358Z,15.17
2019-03-22T12:31:05.337Z,14.15
2019-03-22T12:32:05.749Z,16.58
2019-03-22T12:33:05.471Z,18.29
2019-03-22T12:34:05.337Z,17.29
2019-03-22T12:35:05.559Z,15.27
2019-03-22T12:36:06.256Z,16.59
2019-03-22T12:37:06.347Z,13.75
2019-03-22T12:38:05.521Z,17.49
2019-03-22T12:39:05.310Z,18.11
2019-03-22T12:40:06.112Z,17.50
2019-03-22T12:41:05.752Z,15.97
2019-03-22T12:42:07.643Z,16.67
2019-03-22T12:43:05.222Z,16.06
2019-03-22T12:44:05.361Z,15.36
2019-03-22T12:45:05.610Z,16.47
2019-03-22T12:46:06.315Z,18.59
2019-03-22T12:47:05.193Z,16.25
2019-03-22T12:48:05.148Z,14.22
2019-03-22T12:49:05.127Z,16.35
2019-03-22T12:50:05.120Z,18.07
2019-03-22T12:51:05.112Z,17.47
2019-03-22T12:52:05.095Z,16.16
2019-03-22T12:53:05.128Z,17.58